Time;durP1;ratioP1;P1;durP2;ratioP2;P2;SDS_P1;SDS_P2;PMS_P1;PMS_P2;Temp;Humidity;BMP_temperature;BMP_pressure;BME280_temperature;BME280_humidity;BME280_pressure;Samples;Min_cycle;Max_cycle;Signal;HPM_P1;HPM_P2
2022/12/21 00:01:40;;;;;;;152.18;89.32;;;2.80;99.90;;;;;;5035734;28;20112;-67
2022/12/21 00:04:06;;;;;;;187.15;109.28;;;2.90;99.90;;;;;;5035651;28;20052;-64
2022/12/21 00:06:34;;;;;;;179.85;102.70;;;2.80;99.90;;;;;;5035416;28;20026;-63
2022/12/21 00:09:02;;;;;;;162.80;94.00;;;2.70;99.90;;;;;;5035588;28;20025;-68
2022/12/21 00:11:30;;;;;;;128.52;76.75;;;2.70;99.90;;;;;;5035584;28;20021;-65
2022/12/21 00:13:57;;;;;;;137.75;80.38;;;2.70;99.90;;;;;;5035302;28;20064;-62
2022/12/21 00:16:25;;;;;;;144.85;86.22;;;2.70;99.90;;;;;;5035043;28;20042;-65
2022/12/21 00:18:51;;;;;;;118.07;70.28;;;2.70;99.90;;;;;;5035744;28;20022;-64
2022/12/21 00:21:25;;;;;;;118.72;70.82;;;2.70;99.90;;;;;;5035219;28;20476;-69
2022/12/21 00:23:53;;;;;;;127.40;73.00;;;2.70;99.90;;;;;;5035264;28;20104;-66
2022/12/21 00:26:21;;;;;;;117.70;69.25;;;2.80;99.90;;;;;;5035044;28;20028;-60
2022/12/21 00:28:49;;;;;;;99.65;62.30;;;2.80;99.90;;;;;;5035037;28;20087;-64
2022/12/21 00:31:18;;;;;;;96.93;57.58;;;2.70;99.90;;;;;;5034825;28;20037;-64
2022/12/21 00:33:45;;;;;;;95.40;57.80;;;2.70;99.90;;;;;;5035176;28;20594;-69
2022/12/21 00:36:14;;;;;;;90.32;55.80;;;2.70;99.90;;;;;;5034982;28;20487;-67
2022/12/21 00:38:40;;;;;;;84.75;52.00;;;2.80;99.90;;;;;;5035006;28;20059;-66
2022/12/21 00:41:07;;;;;;;95.03;55.38;;;2.70;99.90;;;;;;5034899;28;20032;-65
2022/12/21 00:43:35;;;;;;;101.40;59.80;;;2.70;99.90;;;;;;5034690;28;20021;-64
2022/12/21 00:46:02;;;;;;;143.30;81.35;;;2.80;99.90;;;;;;5034878;28;20427;-66
2022/12/21 00:48:29;;;;;;;96.00;57.90;;;2.70;99.90;;;;;;5034724;28;20475;-63
2022/12/21 00:51:06;;;;;;;115.53;65.60;;;2.60;99.90;;;;;;5034597;28;20068;-69
2022/12/21 00:53:32;;;;;;;100.72;60.03;;;2.60;99.90;;;;;;5034738;28;20028;-67
2022/12/21 00:55:59;;;;;;;105.03;61.10;;;2.60;99.90;;;;;;5034512;28;20093;-68
2022/12/21 00:58:27;;;;;;;144.40;82.85;;;2.60;99.90;;;;;;5034537;28;20030;-64
2022/12/21 01:00:56;;;;;;;117.57;68.05;;;2.70;99.90;;;;;;5034752;28;20380;-66
2022/12/21 01:03:23;;;;;;;94.75;57.75;;;2.60;99.90;;;;;;5034756;28;20468;-65
2022/12/21 01:05:49;;;;;;;90.13;55.45;;;2.60;99.90;;;;;;5034590;28;20072;-67
2022/12/21 01:08:17;;;;;;;103.95;57.13;;;2.60;99.90;;;;;;5034361;28;20039;-65
2022/12/21 01:10:43;;;;;;;102.70;57.63;;;2.60;99.90;;;;;;5034333;28;20488;-65
2022/12/21 01:13:10;;;;;;;96.57;57.05;;;2.70;99.90;;;;;;5034336;28;20108;-65
2022/12/21 01:15:43;;;;;;;102.38;59.97;;;2.60;99.90;;;;;;5034295;28;20029;-67
2022/12/21 01:18:10;;;;;;;107.95;61.78;;;2.60;99.90;;;;;;5034033;28;20072;-65
2022/12/21 01:20:47;;;;;;;88.47;54.22;;;2.60;99.90;;;;;;5034152;28;20029;-69
2022/12/21 01:23:13;;;;;;;78.60;49.30;;;2.50;99.90;;;;;;5034352;28;20029;-66
2022/12/21 01:25:38;;;;;;;93.93;53.95;;;2.50;99.90;;;;;;5033958;28;20476;-65
2022/12/21 01:28:05;;;;;;;135.98;75.95;;;2.50;99.90;;;;;;5033748;28;20036;-66
2022/12/21 01:30:30;;;;;;;86.38;53.17;;;2.50;99.90;;;;;;5033975;28;20026;-68
2022/12/21 01:32:56;;;;;;;121.38;66.18;;;2.40;99.90;;;;;;5033907;28;20024;-63
2022/12/21 01:35:22;;;;;;;112.85;62.63;;;2.40;99.90;;;;;;5034172;28;20379;-67
2022/12/21 01:37:47;;;;;;;103.50;60.28;;;2.40;99.90;;;;;;5033847;28;20035;-64
2022/12/21 01:40:14;;;;;;;136.27;80.18;;;2.50;99.90;;;;;;5033766;28;20029;-68
2022/12/21 01:42:40;;;;;;;151.13;82.22;;;2.40;99.90;;;;;;5033627;28;20478;-63
2022/12/21 01:45:06;;;;;;;139.40;76.80;;;2.40;99.90;;;;;;5033805;28;20017;-68
2022/12/21 01:47:38;;;;;;;100.30;60.58;;;2.40;99.90;;;;;;5033139;28;20487;-69
2022/12/21 01:50:28;;;;;;;107.78;62.90;;;2.30;99.90;;;;;;5033758;28;20395;-65
2022/12/21 01:52:57;;;;;;;134.38;76.43;;;2.30;99.90;;;;;;5033550;28;20048;-66
2022/12/21 01:55:24;;;;;;;132.98;75.68;;;2.40;99.90;;;;;;5033751;28;20491;-68
2022/12/21 01:57:50;;;;;;;188.55;111.10;;;2.40;99.90;;;;;;5033344;28;20498;-65
2022/12/21 02:00:16;;;;;;;187.23;106.93;;;2.30;99.90;;;;;;5033394;28;20029;-67
2022/12/21 02:02:48;;;;;;;142.95;83.78;;;2.20;99.90;;;;;;5033628;28;20025;-68
2022/12/21 02:05:16;;;;;;;125.57;75.15;;;2.20;99.90;;;;;;5033380;28;20494;-64
2022/12/21 02:07:44;;;;;;;135.07;76.20;;;2.20;99.90;;;;;;5033273;28;20036;-67
2022/12/21 02:10:10;;;;;;;123.38;72.03;;;2.20;99.90;;;;;;5033182;28;20029;-68
2022/12/21 02:12:37;;;;;;;108.93;66.45;;;2.30;99.90;;;;;;5033594;28;20025;-64
2022/12/21 02:15:03;;;;;;;106.97;61.30;;;2.30;99.90;;;;;;5033517;28;20108;-62
2022/12/21 02:17:53;;;;;;;109.38;62.40;;;2.30;99.90;;;;;;5033060;28;20049;-68
2022/12/21 02:20:35;;;;;;;93.15;55.88;;;2.30;99.90;;;;;;5033170;28;20056;-67
2022/12/21 02:23:40;;;;;;;84.95;51.15;;;2.40;99.90;;;;;;5033258;28;20039;-71
2022/12/21 02:26:24;;;;;;;;;;;2.30;99.90;;;;;;5033425;28;20104;-67
2022/12/21 02:29:40;;;;;;;99.83;54.87;;;2.30;99.90;;;;;;5033249;28;20409;-63
2022/12/21 02:32:32;;;;;;;102.90;59.03;;;2.30;99.90;;;;;;5032032;28;20803;-70
2022/12/21 02:35:15;;;;;;;115.38;64.63;;;2.20;99.90;;;;;;5033285;28;20033;-63
2022/12/21 02:38:04;;;;;;;94.22;56.75;;;2.20;99.90;;;;;;5033097;28;20025;-66
2022/12/21 02:40:46;;;;;;;118.95;67.70;;;2.10;99.90;;;;;;5033005;28;20056;-65
2022/12/21 02:46:40;;;;;;;118.10;62.08;;;2.20;99.90;;;;;;5032084;28;20061;-65
2022/12/21 02:49:10;;;;;;;129.93;72.40;;;2.20;99.90;;;;;;5032935;28;20033;-69
2022/12/21 02:51:41;;;;;;;109.15;63.53;;;2.10;99.90;;;;;;5033009;28;20026;-65
2022/12/21 02:54:08;;;;;;;107.18;61.20;;;2.00;99.90;;;;;;5032796;28;20087;-67
2022/12/21 02:56:33;;;;;;;114.40;62.10;;;2.00;99.90;;;;;;5033093;28;20025;-69
2022/12/21 02:59:00;;;;;;;102.82;56.85;;;2.00;99.90;;;;;;5033917;28;20083;-65
2022/12/21 03:01:40;;;;;;;99.70;59.42;;;2.00;99.90;;;;;;5036667;28;20144;-67
2022/12/21 03:04:30;;;;;;;91.50;53.75;;;2.00;99.90;;;;;;5036837;28;20029;-64
2022/12/21 03:07:40;;;;;;;107.70;58.67;;;2.00;99.90;;;;;;5036605;28;20387;-65
2022/12/21 03:10:49;;;;;;;103.45;57.05;;;2.10;99.90;;;;;;5036048;28;20084;-65
2022/12/21 03:13:48;;;;;;;92.22;51.95;;;2.10;99.90;;;;;;5036574;28;20064;-65
2022/12/21 03:16:24;;;;;;;90.68;50.80;;;2.10;99.90;;;;;;5036313;28;20048;-66
2022/12/21 03:19:23;;;;;;;111.30;62.88;;;2.00;99.90;;;;;;5036504;28;20048;-65
2022/12/21 03:22:04;;;;;;;78.07;46.80;;;2.10;99.90;;;;;;5036474;28;20072;-67
2022/12/21 03:24:38;;;;;;;72.80;45.40;;;2.00;99.90;;;;;;5036056;28;20099;-69
2022/12/21 03:27:13;;;;;;;97.25;54.22;;;2.00;99.90;;;;;;5036216;28;20021;-64
2022/12/21 03:29:45;;;;;;;110.82;60.63;;;2.00;99.90;;;;;;5036177;28;20025;-65
2022/12/21 03:32:19;;;;;;;71.13;44.83;;;1.90;99.90;;;;;;5036185;28;20375;-65
2022/12/21 03:34:49;;;;;;;;;;;1.90;99.90;;;;;;5036622;28;20030;-67
2022/12/21 03:37:19;;;;;;;78.22;46.67;;;1.90;99.90;;;;;;5036161;28;20042;-68
2022/12/21 03:39:50;;;;;;;105.93;58.05;;;1.80;99.90;;;;;;5035856;28;20051;-66
2022/12/21 03:42:32;;;;;;;80.50;47.10;;;1.90;99.90;;;;;;5035994;28;20380;-65
2022/12/21 03:45:10;;;;;;;68.90;42.38;;;1.80;99.90;;;;;;5036046;28;20017;-65
2022/12/21 03:47:58;;;;;;;60.63;39.13;;;1.80;99.90;;;;;;5036004;28;20391;-64
2022/12/21 03:50:28;;;;;;;76.00;45.33;;;1.80;99.90;;;;;;5035949;28;20029;-68
2022/12/21 03:53:28;;;;;;;100.88;56.63;;;1.80;99.90;;;;;;5035631;28;20100;-66
2022/12/21 03:55:58;;;;;;;79.88;46.25;;;1.80;99.90;;;;;;5035579;28;20387;-68
2022/12/21 03:58:24;;;;;;;110.95;62.67;;;1.60;99.90;;;;;;5035767;28;20396;-66
2022/12/21 04:01:10;;;;;;;114.60;65.50;;;1.60;99.90;;;;;;5035773;28;20018;-67
2022/12/21 04:03:41;;;;;;;102.20;57.47;;;1.60;99.90;;;;;;5035507;28;20025;-69
2022/12/21 04:06:16;;;;;;;105.32;61.78;;;1.60;99.90;;;;;;5035577;28;20033;-67
2022/12/21 04:08:42;;;;;;;113.63;60.58;;;1.70;99.90;;;;;;5035259;28;20048;-67
2022/12/21 04:12:35;;;;;;;100.95;56.35;;;1.70;99.90;;;;;;5035407;28;20018;-66
2022/12/21 04:13:56;;;;;;;97.40;55.08;;;1.70;99.90;;;;;;5035161;28;20025;-71
2022/12/21 04:16:21;;;;;;;93.55;52.85;;;1.80;99.90;;;;;;5035201;28;20079;-65
2022/12/21 04:21:31;;;;;;;;;;;1.80;99.90;;;;;;5035702;28;20028;-68
2022/12/21 04:29:25;;;;;;;73.70;46.65;;;1.80;99.90;;;;;;5035207;28;20048;-63
2022/12/21 04:31:51;;;;;;;79.53;47.55;;;1.70;99.90;;;;;;5035239;28;20026;-65
2022/12/21 04:34:16;;;;;;;65.95;42.63;;;1.70;99.90;;;;;;5035147;28;20017;-65
2022/12/21 04:39:26;;;;;;;74.07;43.97;;;1.70;99.90;;;;;;5035008;28;20545;-63
2022/12/21 04:41:52;;;;;;;134.25;74.75;;;1.80;99.90;;;;;;5035009;28;20104;-65
2022/12/21 04:44:17;;;;;;;112.82;61.67;;;1.70;99.90;;;;;;5034689;28;20017;-67
2022/12/21 04:46:43;;;;;;;78.35;48.70;;;1.70;99.90;;;;;;5034754;28;20076;-64
2022/12/21 04:49:09;;;;;;;98.07;55.45;;;1.60;99.90;;;;;;5034974;28;20030;-64
2022/12/21 04:51:34;;;;;;;86.43;50.13;;;1.60;99.90;;;;;;5034562;28;20430;-67
2022/12/21 04:54:02;;;;;;;77.63;50.10;;;1.70;99.90;;;;;;5034606;28;20052;-71
2022/12/21 04:56:28;;;;;;;109.20;58.42;;;1.70;99.90;;;;;;5034711;28;20067;-64
2022/12/21 04:58:54;;;;;;;93.30;55.22;;;1.70;99.90;;;;;;5034565;28;20069;-67
2022/12/21 05:01:21;;;;;;;78.25;50.25;;;1.70;99.90;;;;;;5034469;28;20021;-61
2022/12/21 05:03:47;;;;;;;80.07;47.83;;;1.70;99.90;;;;;;5034475;28;20388;-64
2022/12/21 05:06:15;;;;;;;66.57;44.08;;;1.70;99.90;;;;;;5034511;28;20117;-68
2022/12/21 05:08:41;;;;;;;76.85;45.80;;;1.60;99.90;;;;;;5034265;28;20109;-67
2022/12/21 05:11:11;;;;;;;98.88;57.95;;;1.60;99.90;;;;;;5034358;28;20103;-61
2022/12/21 05:13:38;;;;;;;102.35;62.65;;;1.60;99.90;;;;;;5034299;28;20037;-65
2022/12/21 05:16:05;;;;;;;69.03;44.92;;;1.50;99.90;;;;;;5034093;28;20384;-64
2022/12/21 05:18:31;;;;;;;69.80;44.35;;;1.50;99.90;;;;;;5034210;28;20037;-64
2022/12/21 05:20:57;;;;;;;59.53;40.15;;;1.50;99.90;;;;;;5033849;28;20025;-64
2022/12/21 05:23:22;;;;;;;63.30;41.15;;;1.50;99.90;;;;;;5033470;28;20053;-66
2022/12/21 05:25:48;;;;;;;82.85;45.95;;;1.50;99.90;;;;;;5034067;28;20108;-63
2022/12/21 05:28:14;;;;;;;125.85;74.32;;;1.60;99.90;;;;;;5034013;28;20049;-66
2022/12/21 05:30:39;;;;;;;171.15;94.65;;;1.50;99.90;;;;;;5033802;28;20025;-68
2022/12/21 05:33:05;;;;;;;132.55;75.25;;;1.40;99.90;;;;;;5034043;28;20096;-70
2022/12/21 05:35:31;;;;;;;115.85;65.72;;;1.30;99.90;;;;;;5033712;28;20021;-65
2022/12/21 05:37:57;;;;;;;138.00;77.72;;;1.40;99.90;;;;;;5033832;28;20025;-65
2022/12/21 05:40:23;;;;;;;159.63;94.40;;;1.40;99.90;;;;;;5033926;28;20490;-67
2022/12/21 05:42:48;;;;;;;176.68;104.70;;;1.40;99.90;;;;;;5033837;28;20022;-69
2022/12/21 05:45:14;;;;;;;167.55;96.63;;;1.40;99.90;;;;;;5033732;28;20365;-63
2022/12/21 05:47:40;;;;;;;158.15;89.93;;;1.30;99.90;;;;;;5033769;28;20065;-67
2022/12/21 05:50:06;;;;;;;133.88;76.68;;;1.30;99.90;;;;;;5033603;28;20037;-70
2022/12/21 05:52:32;;;;;;;122.00;69.72;;;1.30;99.90;;;;;;5033543;28;20439;-69
2022/12/21 05:54:58;;;;;;;104.13;63.38;;;1.30;99.90;;;;;;5033481;28;20056;-68
2022/12/21 05:57:23;;;;;;;104.90;62.90;;;1.40;99.90;;;;;;5033528;28;20026;-68
2022/12/21 05:59:49;;;;;;;84.03;52.00;;;1.40;99.90;;;;;;5033451;28;20025;-65
2022/12/21 06:02:15;;;;;;;84.13;50.05;;;1.40;99.90;;;;;;5032161;28;20395;-61
2022/12/21 06:04:40;;;;;;;72.45;43.08;;;1.50;99.90;;;;;;5033199;28;20036;-65
2022/12/21 06:07:06;;;;;;;68.95;40.47;;;1.40;99.90;;;;;;5033320;28;20035;-64
2022/12/21 06:09:32;;;;;;;73.35;41.63;;;1.40;99.90;;;;;;5033364;28;20439;-69
2022/12/21 06:11:57;;;;;;;56.97;35.00;;;1.40;99.90;;;;;;5033141;28;20025;-67
2022/12/21 06:14:23;;;;;;;62.08;37.55;;;1.40;99.90;;;;;;5032921;28;20104;-62
2022/12/21 06:16:49;;;;;;;57.00;33.75;;;1.40;99.90;;;;;;5032041;28;20074;-67
2022/12/21 06:19:15;;;;;;;60.38;35.80;;;1.40;99.90;;;;;;5032763;28;20104;-67
2022/12/21 06:21:40;;;;;;;50.65;30.92;;;1.40;99.90;;;;;;5033170;28;20486;-69
2022/12/21 06:24:06;;;;;;;46.70;29.55;;;1.40;99.90;;;;;;5033168;28;20104;-64
2022/12/21 06:26:32;;;;;;;46.50;28.00;;;1.50;99.90;;;;;;5031845;28;20473;-65
2022/12/21 06:28:57;;;;;;;62.38;37.08;;;1.50;99.90;;;;;;5032729;28;20108;-68
2022/12/21 06:31:23;;;;;;;70.22;40.92;;;1.60;99.90;;;;;;5033007;28;20017;-64
2022/12/21 06:33:49;;;;;;;82.10;44.30;;;1.50;99.90;;;;;;5033598;28;20022;-63
2022/12/21 06:36:15;;;;;;;149.50;87.72;;;1.40;99.90;;;;;;5035848;28;20030;-64
2022/12/21 06:38:41;;;;;;;168.52;99.55;;;1.40;99.90;;;;;;5036647;28;20097;-62
2022/12/21 06:41:12;;;;;;;121.28;67.95;;;1.30;99.90;;;;;;5036385;28;20141;-63
2022/12/21 06:43:39;;;;;;;108.30;62.92;;;1.40;99.90;;;;;;5037027;28;20025;-69
2022/12/21 06:46:08;;;;;;;91.82;58.53;;;1.50;99.90;;;;;;5036921;28;20080;-64
2022/12/21 06:48:35;;;;;;;118.80;70.03;;;1.50;99.90;;;;;;5035831;28;20032;-66
2022/12/21 06:51:04;;;;;;;180.40;108.00;;;1.70;99.90;;;;;;5034920;28;20518;-64
2022/12/21 06:53:32;;;;;;;146.70;82.72;;;1.70;99.90;;;;;;5035894;28;20079;-65
2022/12/21 06:56:22;;;;;;;192.45;112.32;;;1.70;99.90;;;;;;5036542;28;20025;-67
2022/12/21 06:58:50;;;;;;;132.45;79.90;;;1.80;99.90;;;;;;5036318;28;20119;-68
2022/12/21 07:01:23;;;;;;;184.05;102.40;;;1.80;99.90;;;;;;5034597;28;20025;-67
2022/12/21 07:03:48;;;;;;;174.45;96.93;;;1.90;99.90;;;;;;5035008;28;20032;-62
2022/12/21 07:06:18;;;;;;;134.68;81.95;;;1.90;99.90;;;;;;5036336;28;20034;-66
2022/12/21 07:08:44;;;;;;;279.95;153.90;;;2.00;99.90;;;;;;5036272;28;20026;-66
2022/12/21 07:11:12;;;;;;;225.35;123.45;;;2.00;99.90;;;;;;5034977;28;20026;-65
2022/12/21 07:13:41;;;;;;;180.75;105.57;;;2.00;99.90;;;;;;5030565;28;20091;-66
2022/12/21 07:16:11;;;;;;;149.40;86.05;;;2.10;99.90;;;;;;5032992;28;20065;-63
2022/12/21 07:18:42;;;;;;;219.07;123.25;;;2.20;99.90;;;;;;5034750;28;20087;-64
2022/12/21 07:21:13;;;;;;;281.98;152.68;;;2.20;99.90;;;;;;5035030;28;20515;-64
2022/12/21 07:23:40;;;;;;;323.00;180.88;;;2.30;99.90;;;;;;5033134;28;20033;-61
2022/12/21 07:26:17;;;;;;;279.27;158.10;;;2.20;99.90;;;;;;5034731;28;20048;-63
2022/12/21 07:28:43;;;;;;;285.67;163.15;;;2.20;99.90;;;;;;5033391;28;20033;-64
2022/12/21 07:31:18;;;;;;;245.77;145.63;;;2.20;99.90;;;;;;5033614;28;20052;-66
2022/12/21 07:33:44;;;;;;;225.48;129.45;;;2.30;99.90;;;;;;5032965;28;20073;-69
2022/12/21 07:36:11;;;;;;;182.65;112.53;;;2.40;99.90;;;;;;5032758;28;20025;-63
2022/12/21 07:38:37;;;;;;;168.68;101.00;;;2.40;99.90;;;;;;5034927;28;20013;-63
2022/12/21 07:41:05;;;;;;;148.23;92.95;;;2.50;99.90;;;;;;5034008;28;20483;-63
2022/12/21 07:43:32;;;;;;;142.90;84.35;;;2.70;99.90;;;;;;5033780;28;20053;-68
2022/12/21 07:45:58;;;;;;;135.43;81.28;;;2.90;99.90;;;;;;5033190;28;20072;-69
2022/12/21 07:48:23;;;;;;;163.27;103.95;;;3.00;99.90;;;;;;5034439;28;20500;-65
2022/12/21 07:50:51;;;;;;;259.00;156.63;;;3.10;99.90;;;;;;5033833;28;20083;-67
2022/12/21 07:53:17;;;;;;;429.25;280.90;;;3.20;99.90;;;;;;5032413;28;20325;-65
2022/12/21 07:55:43;;;;;;;412.80;273.17;;;3.50;99.90;;;;;;5030493;28;20030;-72
2022/12/21 07:58:09;;;;;;;384.17;251.43;;;4.10;99.90;;;;;;5028899;28;20024;-69
2022/12/21 08:00:37;;;;;;;337.33;222.38;;;4.40;99.90;;;;;;5030956;28;20590;-65
2022/12/21 08:03:04;;;;;;;312.63;205.93;;;4.60;99.90;;;;;;5031654;28;20025;-68
2022/12/21 08:05:30;;;;;;;315.25;211.65;;;5.10;99.90;;;;;;5031456;28;20105;-68
2022/12/21 08:07:57;;;;;;;284.48;191.40;;;5.50;99.90;;;;;;5030734;28;20037;-70
2022/12/21 08:10:24;;;;;;;285.27;190.52;;;5.60;99.90;;;;;;5030953;28;20022;-66
2022/12/21 08:12:50;;;;;;;271.05;180.80;;;6.10;99.90;;;;;;5031270;28;20022;-63
2022/12/21 08:15:16;;;;;;;240.82;160.88;;;6.30;99.90;;;;;;5031403;28;20498;-68
2022/12/21 08:17:42;;;;;;;238.18;153.90;;;6.20;99.90;;;;;;5032027;28;20530;-69
2022/12/21 08:20:08;;;;;;;348.90;229.85;;;6.20;99.90;;;;;;5030814;28;20026;-67
2022/12/21 08:22:34;;;;;;;303.20;196.70;;;6.30;99.90;;;;;;5032789;28;20537;-68
2022/12/21 08:25:01;;;;;;;312.33;203.05;;;6.90;99.90;;;;;;5032975;28;20060;-72
2022/12/21 08:27:26;;;;;;;251.50;170.23;;;7.00;99.90;;;;;;5032468;28;20121;-73
2022/12/21 08:29:52;;;;;;;258.65;169.35;;;6.70;99.90;;;;;;5033050;28;20116;-65
2022/12/21 08:32:18;;;;;;;252.43;168.35;;;6.90;99.90;;;;;;5035264;28;20460;-67
2022/12/21 08:34:45;;;;;;;235.75;159.00;;;6.90;99.90;;;;;;5035257;28;20456;-70
2022/12/21 08:37:11;;;;;;;248.93;169.88;;;6.80;99.90;;;;;;5031497;28;20068;-68
2022/12/21 08:39:36;;;;;;;229.13;157.18;;;6.60;99.90;;;;;;5030883;28;20049;-66
2022/12/21 08:42:03;;;;;;;220.02;152.20;;;6.50;99.90;;;;;;5033470;28;20025;-68
2022/12/21 08:44:28;;;;;;;267.88;177.70;;;7.00;99.90;;;;;;5032735;28;20025;-72
2022/12/21 08:46:54;;;;;;;283.92;195.93;;;6.90;99.90;;;;;;5031962;28;20079;-67
2022/12/21 08:49:20;;;;;;;232.23;161.02;;;6.70;99.90;;;;;;5031652;28;20030;-69
2022/12/21 08:51:46;;;;;;;214.25;143.90;;;6.50;99.90;;;;;;5028573;28;20546;-64
2022/12/21 08:54:11;;;;;;;197.02;138.27;;;6.90;99.90;;;;;;5030660;28;20702;-65
2022/12/21 08:56:37;;;;;;;186.18;129.63;;;7.40;99.90;;;;;;5031706;28;20025;-65
2022/12/21 08:59:07;;;;;;;159.95;115.80;;;7.90;99.90;;;;;;5032870;28;20033;-63
2022/12/21 09:01:34;;;;;;;149.98;107.72;;;7.90;99.90;;;;;;5033796;28;20482;-69
2022/12/21 09:04:01;;;;;;;164.25;112.75;;;7.90;99.90;;;;;;5034131;28;20025;-62
2022/12/21 09:06:27;;;;;;;204.00;136.68;;;7.90;99.90;;;;;;5033719;28;20096;-62
2022/12/21 09:08:53;;;;;;;194.00;132.10;;;7.90;99.90;;;;;;5033854;28;20456;-74
2022/12/21 09:11:20;;;;;;;180.20;122.55;;;7.70;99.90;;;;;;5033678;28;20502;-77
2022/12/21 09:13:46;;;;;;;179.45;122.80;;;7.80;99.90;;;;;;5033554;28;20025;-67
2022/12/21 09:16:16;;;;;;;161.02;117.32;;;8.00;99.90;;;;;;5032505;28;20439;-66
2022/12/21 09:18:43;;;;;;;159.00;115.07;;;8.20;99.90;;;;;;5032162;28;20033;-67
2022/12/21 09:21:09;;;;;;;141.40;104.95;;;8.70;99.90;;;;;;5032978;28;20100;-69
2022/12/21 09:23:35;;;;;;;156.38;113.20;;;9.10;99.90;;;;;;5034247;28;20215;-69
2022/12/21 09:26:04;;;;;;;149.30;110.75;;;9.40;99.80;;;;;;5032829;28;20055;-65
2022/12/21 09:28:33;;;;;;;135.57;102.97;;;9.60;99.90;;;;;;5033958;28;20052;-70
2022/12/21 09:31:18;;;;;;;126.18;98.40;;;9.90;99.90;;;;;;5030834;28;20483;-70
2022/12/21 09:33:45;;;;;;;136.38;102.45;;;10.30;98.50;;;;;;5029623;28;20029;-71
2022/12/21 09:36:12;;;;;;;136.88;102.90;;;10.50;98.30;;;;;;5032817;28;20104;-70
2022/12/21 09:38:38;;;;;;;122.70;98.22;;;10.80;97.80;;;;;;5032250;28;20503;-63
2022/12/21 09:41:22;;;;;;;157.35;119.72;;;10.90;95.20;;;;;;5030882;28;20056;-63
2022/12/21 09:44:04;;;;;;;165.95;127.32;;;11.20;91.10;;;;;;5031722;28;20022;-70
2022/12/21 09:46:36;;;;;;;181.45;137.10;;;11.40;90.30;;;;;;5027604;28;20049;-64
2022/12/21 09:49:26;;;;;;;175.48;134.30;;;11.50;84.00;;;;;;5027405;28;20056;-65
2022/12/21 09:51:55;;;;;;;156.23;123.63;;;11.70;74.80;;;;;;5029189;28;20087;-68
2022/12/21 09:54:30;;;;;;;167.20;125.25;;;11.90;75.70;;;;;;5028865;28;20049;-65
2022/12/21 09:56:56;;;;;;;186.95;134.00;;;12.10;72.40;;;;;;5028921;28;20083;-69
2022/12/21 09:59:22;;;;;;;200.43;143.30;;;12.10;72.70;;;;;;5030924;28;20029;-63
2022/12/21 10:02:03;;;;;;;188.48;141.30;;;12.00;83.00;;;;;;5024882;28;20033;-61
2022/12/21 10:04:28;;;;;;;166.45;130.00;;;12.20;77.90;;;;;;5030950;28;20495;-62
2022/12/21 10:07:03;;;;;;;153.45;121.95;;;12.50;74.30;;;;;;5031016;28;20030;-67
2022/12/21 10:09:34;;;;;;;150.48;119.63;;;12.70;64.50;;;;;;5031823;28;20031;-69
2022/12/21 10:12:09;;;;;;;153.45;123.93;;;12.80;63.90;;;;;;5032019;28;20430;-66
2022/12/21 10:14:57;;;;;;;151.88;121.97;;;13.00;64.50;;;;;;5031292;28;20519;-61
2022/12/21 10:17:44;;;;;;;135.98;110.82;;;13.10;63.00;;;;;;5030170;28;20057;-63
2022/12/21 10:20:45;;;;;;;128.95;105.80;;;13.30;60.90;;;;;;5030314;28;20052;-67
2022/12/21 10:23:17;;;;;;;118.90;101.55;;;13.40;59.90;;;;;;5033628;28;20037;-68
2022/12/21 10:25:46;;;;;;;118.65;98.15;;;13.50;59.10;;;;;;5031809;28;20026;-67
2022/12/21 10:28:49;;;;;;;117.40;97.32;;;13.60;58.50;;;;;;5026692;28;20495;-66
2022/12/21 10:31:26;;;;;;;101.88;86.30;;;13.70;58.70;;;;;;5028345;28;20030;-69
2022/12/21 10:33:55;;;;;;;103.30;88.85;;;13.60;60.40;;;;;;5026893;28;20024;-65
2022/12/21 10:36:33;;;;;;;98.57;82.38;;;13.70;60.50;;;;;;5029172;28;20385;-65
2022/12/21 10:39:13;;;;;;;92.47;80.82;;;13.80;59.00;;;;;;5028612;28;20120;-63
2022/12/21 10:42:00;;;;;;;84.07;73.63;;;13.80;58.90;;;;;;5052092;28;20017;-64
2022/12/21 10:44:30;;;;;;;80.45;70.78;;;14.00;58.70;;;;;;5022450;28;20049;-63
2022/12/21 10:47:01;;;;;;;82.95;71.43;;;14.10;58.40;;;;;;5019349;28;20710;-69
2022/12/21 10:49:38;;;;;;;84.25;70.90;;;14.20;57.90;;;;;;5025166;28;20033;-72
2022/12/21 10:52:36;;;;;;;87.80;75.78;;;14.40;58.50;;;;;;5027566;28;20095;-68
2022/12/21 10:55:03;;;;;;;86.93;71.28;;;14.60;57.50;;;;;;5025592;28;20025;-66
2022/12/21 10:57:32;;;;;;;78.53;67.35;;;14.70;55.30;;;;;;5027792;28;20017;-70
2022/12/21 11:00:20;;;;;;;77.20;67.00;;;14.80;55.90;;;;;;5021416;28;20030;-62
2022/12/21 11:02:47;;;;;;;86.72;73.80;;;14.90;54.90;;;;;;5028608;28;20033;-61
2022/12/21 11:05:55;;;;;;;81.50;69.95;;;14.90;54.70;;;;;;5029394;28;20018;-69
2022/12/21 11:08:32;;;;;;;78.80;66.45;;;15.00;54.50;;;;;;5023729;28;20041;-65
2022/12/21 11:11:35;;;;;;;79.75;64.57;;;15.10;53.50;;;;;;5027397;28;20037;-61
2022/12/21 11:14:22;;;;;;;71.83;61.67;;;15.00;54.00;;;;;;5032868;28;20146;-66
2022/12/21 11:16:49;;;;;;;75.82;64.85;;;14.90;54.10;;;;;;5010278;28;20042;-71
2022/12/21 11:19:30;;;;;;;72.68;60.97;;;14.80;55.20;;;;;;5021596;28;20068;-70
2022/12/21 11:22:02;;;;;;;65.03;56.13;;;14.80;55.40;;;;;;5029899;28;20092;-63
2022/12/21 11:24:33;;;;;;;70.07;59.80;;;14.80;55.30;;;;;;5033447;28;20050;-62
2022/12/21 11:27:30;;;;;;;63.45;55.60;;;14.70;56.90;;;;;;5031440;28;20032;-65
2022/12/21 11:30:04;;;;;;;61.28;52.60;;;14.70;57.10;;;;;;5031221;28;20040;-63
2022/12/21 11:32:32;;;;;;;61.17;49.92;;;14.70;56.10;;;;;;5032098;28;20040;-62
2022/12/21 11:35:00;;;;;;;56.85;50.00;;;14.80;56.70;;;;;;5034386;28;20029;-64
2022/12/21 11:37:35;;;;;;;68.03;57.00;;;14.90;56.40;;;;;;5034827;28;20136;-67
2022/12/21 11:40:17;;;;;;;77.00;64.05;;;14.90;55.90;;;;;;5034851;28;20037;-68
2022/12/21 11:42:52;;;;;;;75.80;64.72;;;15.00;57.20;;;;;;5033734;28;20023;-68
2022/12/21 11:45:25;;;;;;;72.43;61.58;;;15.20;57.40;;;;;;5031067;28;20029;-68
2022/12/21 11:48:11;;;;;;;65.35;58.15;;;15.40;56.50;;;;;;5029317;28;20040;-69
2022/12/21 11:50:48;;;;;;;61.88;55.20;;;15.70;56.30;;;;;;5026459;28;20526;-67
2022/12/21 11:53:34;;;;;;;63.35;54.22;;;15.80;54.70;;;;;;5030287;28;20021;-62
2022/12/21 11:56:29;;;;;;;60.00;51.28;;;15.80;54.50;;;;;;5032244;28;20057;-61
2022/12/21 11:59:13;;;;;;;;;;;15.90;55.00;;;;;;5032468;28;20041;-62
2022/12/21 12:02:04;;;;;;;54.83;48.78;;;16.00;54.60;;;;;;5033714;28;19913;-63
2022/12/21 12:04:49;;;;;;;52.85;46.63;;;16.20;53.90;;;;;;5020523;28;20033;-64
2022/12/21 12:07:27;;;;;;;55.50;48.00;;;16.30;54.70;;;;;;5029543;28;20041;-66
2022/12/21 12:09:53;;;;;;;74.00;61.45;;;16.40;54.60;;;;;;5031756;28;20502;-66
2022/12/21 12:12:34;;;;;;;72.05;59.85;;;16.50;54.90;;;;;;5029772;28;20164;-64
2022/12/21 12:15:39;;;;;;;67.60;57.85;;;16.60;54.00;;;;;;5029283;28;20021;-70
2022/12/21 12:18:17;;;;;;;65.18;56.38;;;16.60;52.90;;;;;;5028240;28;20045;-60
2022/12/21 12:21:24;;;;;;;58.60;50.40;;;16.70;53.10;;;;;;5029664;28;20036;-64
2022/12/21 12:24:15;;;;;;;57.28;51.08;;;16.50;53.00;;;;;;5029382;28;20468;-63
2022/12/21 12:27:10;;;;;;;57.25;50.20;;;16.10;54.20;;;;;;5030082;28;20026;-68
2022/12/21 12:29:49;;;;;;;53.85;47.95;;;16.00;54.50;;;;;;5028965;28;20082;-68
2022/12/21 12:32:34;;;;;;;54.83;48.83;;;16.10;54.10;;;;;;5030486;28;20063;-62
2022/12/21 12:35:16;;;;;;;67.07;56.33;;;16.20;54.00;;;;;;5032602;28;20013;-63
2022/12/21 12:38:11;;;;;;;60.38;52.47;;;16.10;53.50;;;;;;5030407;28;20503;-66
2022/12/21 12:41:03;;;;;;;57.13;51.03;;;16.10;55.50;;;;;;5030715;28;20087;-64
2022/12/21 12:43:32;;;;;;;68.60;61.22;;;16.20;54.70;;;;;;5031220;28;20029;-63
2022/12/21 12:46:15;;;;;;;84.13;69.43;;;16.10;55.10;;;;;;5031425;28;20033;-65
2022/12/21 12:48:41;;;;;;;94.03;80.35;;;15.70;56.20;;;;;;5029054;28;20030;-63
2022/12/21 12:51:29;;;;;;;109.07;89.45;;;15.20;56.70;;;;;;5034760;28;20033;-65
2022/12/21 12:54:01;;;;;;;113.38;94.05;;;14.50;59.20;;;;;;5033236;28;20076;-62
2022/12/21 12:56:38;;;;;;;124.07;99.45;;;13.80;70.60;;;;;;5034570;28;20029;-64
2022/12/21 12:59:20;;;;;;;121.68;99.15;;;13.10;94.60;;;;;;5033919;28;20029;-65
2022/12/21 13:02:08;;;;;;;122.90;103.05;;;12.70;99.90;;;;;;5032159;28;20022;-62
2022/12/21 13:04:55;;;;;;;109.13;91.70;;;12.40;99.90;;;;;;5033273;28;20025;-64
2022/12/21 13:07:20;;;;;;;108.60;95.50;;;12.10;99.90;;;;;;5031781;28;20505;-63